Lawai, Hawaii
Current Conditions -  °F | °C
As of 5:53 PM on Monday 20 Oct 2014 (Local Time) from PHLI Reporting Station
Few Clouds Few Clouds  
Wind Chill: 80°   Ceiling: Unl
Heat Index: 84°   Visibility: 10mi
Dew Point: 72°   Wind: 14mph
Humidity: 76%   Direction: 90°E
Pressure: 29.97"   Gusts: NA
Location:  21.92°N, 159.5°W
Report Text: PHLI 210353Z 09012KT 10SM FEW019 27/22 A2997 RMK AO2 SLP145 T02670222
Loading
Personal Weather Stations






























Interactive Weather Map
Tropical Storm Tracking
New forecast layout! Learn more

10-Day Weather Forecast

Advertisements
Track Severe Weather on mobile